Terminal Aerodrome Forecast
Issued by NWS

Home | Current Version | Previous Version | Text Only | Print | Product List | Glossary On
Versions: 1 2 3 4 5 6 7 8 9 10 11 12 13 14 15 16 17 18 19 20 21 22 23 24 25
000
FTUS41 KBTV 012030 AAA
TAFRUT
TAF AMD
KRUT 012030Z 0121/0218 35008KT P6SM BKN130 OVC150
     FM020400 10005KT P6SM OVC070
     FM020700 11006KT 1 1/2SM -SN BR OVC035
      AMD LTD TO CLD VIS AND WIND=

USA.gov is the U.S. government's official web portal to all federal, state and local government web resources and services.